Vandalia, Illinois
Current Conditions -  °F | °C
As of 2:55 AM on Monday 20 Oct 2014 (Local Time) from KSLO Reporting Station
Overcast Overcast  
Wind Chill: 55°   Ceiling: 11000
Heat Index: 55°   Visibility: 10mi
Dew Point: 50°   Wind: 7mph
Humidity: 82%   Direction: 200°SSW
Pressure: 30.01"   Gusts: NA
Location:  38.96°N, 89.1°W
Report Text: KSLO 200755Z AUTO 20006KT 10SM OVC110 13/10 A3001 RMK AO2 T01300100
Loading
Personal Weather Stations






























Interactive Weather Map
Tropical Storm Tracking
New forecast layout! Learn more

10-Day Weather Forecast

Advertisements
Track Severe Weather on mobile